Time;durP1;ratioP1;P1;durP2;ratioP2;P2;SDS_P1;SDS_P2;PMS_P1;PMS_P2;Temp;Humidity;BMP_temperature;BMP_pressure;BME280_temperature;BME280_humidity;BME280_pressure;Samples;Min_cycle;Max_cycle;Signal;HPM_P1;HPM_P2
2022/04/22 00:01:36;;;;;;;44.53;25.23;;;;;;;10.18;81.63;95084.38;6262320;22;20011;-86
2022/04/22 00:04:03;;;;;;;39.60;24.65;;;;;;;9.08;81.65;94921.16;6300824;22;20011;-86
2022/04/22 00:06:29;;;;;;;43.13;24.05;;;;;;;9.80;81.90;95031.00;6304477;22;20018;-86
2022/04/22 00:08:55;;;;;;;38.83;23.63;;;;;;;9.71;81.46;94992.91;6304688;22;20064;-86
2022/04/22 00:11:29;;;;;;;43.63;24.35;;;;;;;9.74;80.69;94999.53;6277158;22;20094;-86
2022/04/22 00:14:01;;;;;;;44.13;23.10;;;;;;;10.21;81.40;95083.84;6277497;22;20013;-86
2022/04/22 00:16:28;;;;;;;40.15;22.88;;;;;;;9.40;81.15;94997.53;6304144;22;19999;-86
2022/04/22 00:18:54;;;;;;;40.70;23.10;;;;;;;9.75;80.92;94999.25;6277074;22;20011;-86
2022/04/22 00:21:20;;;;;;;38.00;24.17;;;;;;;10.29;81.03;95065.53;6277188;22;20473;-86
2022/04/22 00:23:46;;;;;;;32.40;22.52;;;;;;;9.88;81.22;95003.16;6303538;22;20473;-86
2022/04/22 00:26:11;;;;;;;39.35;22.95;;;;;;;9.88;81.50;95021.72;6304368;22;20007;-86
2022/04/22 00:28:37;;;;;;;36.00;22.60;;;;;;;9.37;81.91;94942.50;6303503;22;20003;-86
2022/04/22 00:31:03;;;;;;;35.00;23.48;;;;;;;9.93;81.90;95005.78;6276946;22;20442;-86
2022/04/22 00:33:29;;;;;;;32.85;21.42;;;;;;;9.57;81.97;94958.28;6276307;22;20409;-86
2022/04/22 00:35:54;;;;;;;37.20;22.15;;;;;;;9.25;81.74;94918.19;6277004;22;20362;-86
2022/04/22 00:38:20;;;;;;;42.08;23.48;;;;;;;9.50;82.27;94952.50;6276654;22;20030;-86
2022/04/22 00:40:45;;;;;;;43.83;24.60;;;;;;;9.56;83.14;95012.31;6276446;22;20086;-86
2022/04/22 00:43:19;;;;;;;36.67;24.27;;;;;;;9.72;83.04;95067.84;6276759;22;20003;-86
2022/04/22 00:45:45;;;;;;;34.60;21.83;;;;;;;9.13;83.13;94960.06;6277112;22;20019;-86
2022/04/22 00:48:11;;;;;;;37.22;22.33;;;;;;;10.00;82.73;95056.59;6305162;22;20103;-86
2022/04/22 00:50:38;;;;;;;38.60;22.80;;;;;;;9.66;82.60;95009.63;6276985;22;20419;-86
2022/04/22 00:53:05;;;;;;;38.10;22.88;;;;;;;8.40;81.92;94788.66;6276126;22;20169;-86
2022/04/22 00:55:30;;;;;;;36.92;22.90;;;;;;;9.48;81.70;94935.31;6277695;22;20011;-86
2022/04/22 00:57:58;;;;;;;37.00;21.92;;;;;;;9.90;81.78;94995.75;6276729;22;19999;-86
2022/04/22 01:00:23;;;;;;;38.03;22.38;;;;;;;9.22;81.22;94874.56;6305128;22;20354;-86
2022/04/22 01:02:49;;;;;;;36.20;22.15;;;;;;;9.29;82.15;94903.38;6278457;22;20007;-86
2022/04/22 01:10:42;;;;;;;41.33;23.33;;;;;;;8.97;82.16;94819.13;6304499;22;20591;-86
2022/04/22 01:13:09;;;;;;;36.60;22.92;;;;;;;9.32;82.43;94910.75;6302262;22;20007;-86
2022/04/22 01:15:36;;;;;;;34.85;21.73;;;;;;;9.00;81.79;94862.75;6261424;22;20065;-86
2022/04/22 01:18:01;;;;;;;32.05;20.52;;;;;;;8.97;81.91;94845.56;6272765;22;20463;-86
2022/04/22 01:20:27;;;;;;;35.17;22.80;;;;;;;9.08;81.64;94859.56;6276977;22;20003;-86
2022/04/22 01:22:52;;;;;;;36.55;21.17;;;;;;;9.32;81.63;94888.78;6275837;22;20015;-86
2022/04/22 01:25:18;;;;;;;37.88;22.77;;;;;;;8.78;82.00;94796.97;6271990;22;20012;-86
2022/04/22 01:27:49;;;;;;;38.00;21.42;;;;;;;9.59;81.68;94905.09;6262789;22;20015;-86
2022/04/22 01:30:14;;;;;;;41.08;20.88;;;;;;;9.27;81.58;94829.56;6275720;22;20011;-86
2022/04/22 01:32:41;;;;;;;33.67;20.88;;;;;;;9.61;81.59;94866.66;6303602;22;20014;-86
2022/04/22 01:35:07;;;;;;;33.20;21.55;;;;;;;8.31;81.47;94649.47;6301514;22;20014;-86
2022/04/22 01:37:32;;;;;;;37.83;20.00;;;;;;;10.02;81.91;94959.09;6292340;22;20367;-85
2022/04/22 01:39:58;;;;;;;29.83;18.25;;;;;;;9.22;81.12;94808.44;6275064;22;20038;-85
2022/04/22 01:42:23;;;;;;;30.23;18.95;;;;;;;9.32;81.57;94822.63;6273578;22;20022;-85
2022/04/22 01:44:49;;;;;;;32.05;17.83;;;;;;;8.33;81.05;94674.53;6273073;22;20011;-85
2022/04/22 01:47:15;;;;;;;33.38;17.73;;;;;;;10.02;80.82;94936.06;6301923;22;20011;-86
2022/04/22 01:49:41;;;;;;;24.10;16.65;;;;;;;8.71;81.61;94802.56;6275977;22;20030;-85
2022/04/22 01:52:07;;;;;;;23.77;15.73;;;;;;;9.85;81.59;94951.53;6275454;22;20050;-85
2022/04/22 01:54:33;;;;;;;25.98;16.02;;;;;;;9.06;80.71;94800.84;6275834;22;20011;-84
2022/04/22 01:56:58;;;;;;;21.15;14.82;;;;;;;9.34;80.51;94854.91;6275137;22;20013;-85
2022/04/22 01:59:23;;;;;;;24.25;14.93;;;;;;;9.70;80.36;94911.88;6290846;22;20063;-85
2022/04/22 02:01:49;;;;;;;23.50;11.73;;;;;;;9.68;80.07;94925.41;6276203;22;20007;-85
2022/04/22 02:04:14;;;;;;;20.30;12.70;;;;;;;9.19;79.89;94853.13;6275918;22;20366;-86
2022/04/22 02:06:40;;;;;;;24.52;14.07;;;;;;;8.70;79.57;94819.47;6275488;22;20011;-86
2022/04/22 02:09:05;;;;;;;24.77;14.88;;;;;;;9.30;80.28;94907.63;6301632;22;20007;-85
2022/04/22 02:11:31;;;;;;;26.73;15.18;;;;;;;8.80;79.79;94835.31;6292762;22;20027;-85
2022/04/22 02:14:04;;;;;;;26.95;15.65;;;;;;;9.65;80.03;94964.88;5123291;27;20214;-82
2022/04/22 02:16:29;;;;;;;33.70;17.98;;;;;;;9.86;80.07;95006.09;5102951;28;20043;-83
2022/04/22 02:18:55;;;;;;;28.80;16.88;;;;;;;9.54;79.98;94950.09;5091698;28;20024;-82
2022/04/22 02:21:21;;;;;;;26.55;17.67;;;;;;;9.78;79.59;94971.44;5107520;28;20359;-83
2022/04/22 02:23:47;;;;;;;28.48;17.00;;;;;;;9.60;79.83;94978.94;5106045;28;20054;-83
2022/04/22 02:26:12;;;;;;;34.28;17.30;;;;;;;9.54;79.79;94989.81;5106922;28;20032;-83
2022/04/22 02:28:38;;;;;;;27.52;16.85;;;;;;;9.46;80.83;95012.34;5107455;28;20122;-82
2022/04/22 02:31:09;;;;;;;33.90;20.17;;;;;;;9.44;81.05;94993.31;5097389;28;20028;-83
2022/04/22 02:33:39;;;;;;;39.40;19.30;;;;;;;8.21;81.47;94787.63;5098811;28;20054;-82
2022/04/22 02:36:06;;;;;;;32.45;19.73;;;;;;;9.22;81.92;94924.84;5107701;28;20047;-83
2022/04/22 02:38:32;;;;;;;31.42;19.40;;;;;;;9.52;81.87;94976.06;5106437;28;20028;-83
2022/04/22 02:46:28;;;;;;;32.35;17.83;;;;;;;9.15;81.42;94907.69;5094608;28;20037;-83
2022/04/22 02:49:00;;;;;;;29.90;18.00;;;;;;;9.32;82.54;94928.50;5097098;28;20114;-83
2022/04/22 02:51:27;;;;;;;33.45;18.40;;;;;;;8.95;81.93;94895.28;5085990;28;20671;-83
2022/04/22 02:53:53;;;;;;;27.67;18.92;;;;;;;9.24;82.21;94988.84;5096649;28;20448;-83
2022/04/22 02:56:20;;;;;;;32.25;17.42;;;;;;;9.31;82.58;94971.91;5106920;28;20127;-82
2022/04/22 02:58:46;;;;;;;31.60;17.25;;;;;;;8.55;82.85;94845.16;5104847;28;20105;-82
2022/04/22 03:01:14;;;;;;;28.70;18.10;;;;;;;9.23;82.43;94944.91;5089894;28;20111;-82
2022/04/22 03:03:41;;;;;;;35.38;17.23;;;;;;;9.51;82.27;94955.94;5086203;28;20116;-82
2022/04/22 03:06:06;;;;;;;30.83;17.33;;;;;;;8.66;82.06;94857.31;5105360;28;20031;-82
2022/04/22 03:08:32;;;;;;;31.48;16.50;;;;;;;8.64;81.84;94838.28;5105039;28;20042;-83
2022/04/22 03:10:58;;;;;;;32.90;17.60;;;;;;;9.65;81.67;94962.22;5105280;28;20039;-82
2022/04/22 03:13:23;;;;;;;25.52;16.30;;;;;;;9.56;81.97;94964.66;5105631;28;20155;-82
2022/04/22 03:15:49;;;;;;;26.35;15.23;;;;;;;9.69;81.55;94969.34;5104640;28;20039;-82
2022/04/22 03:18:15;;;;;;;31.38;17.10;;;;;;;9.79;81.41;94979.09;5087742;28;20063;-82
2022/04/22 03:20:40;;;;;;;28.17;15.77;;;;;;;9.50;81.74;94939.28;5090297;28;20398;-82
2022/04/22 03:23:06;;;;;;;27.17;16.52;;;;;;;9.45;81.29;94922.63;5109161;28;20031;-82
2022/04/22 03:25:31;;;;;;;25.05;16.48;;;;;;;9.55;81.23;94964.91;5087228;28;20079;-82
2022/04/22 03:27:57;;;;;;;27.48;17.17;;;;;;;8.70;81.24;94845.13;5085488;28;20465;-82
2022/04/22 03:30:22;;;;;;;27.60;18.52;;;;;;;8.96;80.95;94861.72;5084801;28;20453;-83
2022/04/22 03:32:48;;;;;;;26.63;17.63;;;;;;;9.14;81.06;94887.56;5087990;28;20036;-82
2022/04/22 03:35:13;;;;;;;31.13;18.02;;;;;;;9.56;80.64;94948.78;5079304;28;20418;-82
2022/04/22 03:37:41;;;;;;;27.85;18.88;;;;;;;9.10;80.26;94892.59;5070945;28;20542;-82
2022/04/22 03:40:09;;;;;;;27.23;17.48;;;;;;;8.63;80.43;94791.75;5087364;28;20055;-82
2022/04/22 03:42:36;;;;;;;27.17;16.95;;;;;;;9.16;80.29;94877.47;5072454;28;20161;-82
2022/04/22 03:45:03;;;;;;;29.35;17.52;;;;;;;9.67;79.64;94960.13;5050868;28;20495;-82
2022/04/22 03:47:28;;;;;;;29.77;18.02;;;;;;;9.84;79.73;95010.84;5073964;28;20024;-82
2022/04/22 03:49:54;;;;;;;29.13;17.52;;;;;;;8.56;79.66;94810.53;5085715;28;20032;-82
2022/04/22 03:52:19;;;;;;;33.55;18.38;;;;;;;9.64;81.17;95008.31;5074977;28;20107;-82
2022/04/22 03:54:45;;;;;;;28.55;18.17;;;;;;;8.87;80.45;94842.97;5090989;28;20426;-82
2022/04/22 03:59:55;;;;;;;26.17;16.30;;;;;;;9.05;79.03;94908.50;5079386;28;20461;-82
2022/04/22 04:02:21;;;;;;;39.00;19.17;;;;;;;9.38;80.95;95009.47;5070205;28;20118;-83
2022/04/22 04:04:48;;;;;;;24.98;16.77;;;;;;;8.82;81.03;94961.97;5085086;28;20036;-83
2022/04/22 04:07:14;;;;;;;26.17;16.75;;;;;;;8.90;82.19;94948.22;5077076;28;20108;-83
2022/04/22 04:17:52;;;;;;;37.58;19.33;;;;;;;8.84;81.14;94905.13;5079492;28;20068;-83
2022/04/22 04:23:17;;;;;;;35.97;20.08;;;;;;;8.50;80.82;94836.22;5071599;28;20109;-83
2022/04/22 04:25:44;;;;;;;36.38;19.73;;;;;;;8.95;80.84;94903.22;5087873;28;20096;-82
2022/04/22 04:28:11;;;;;;;36.00;19.65;;;;;;;9.57;81.15;94992.72;5073163;28;20097;-84
2022/04/22 04:30:41;;;;;;;26.85;17.63;;;;;;;9.64;81.26;94984.47;5070951;28;20082;-83
2022/04/22 04:33:09;;;;;;;27.35;17.88;;;;;;;9.20;81.05;94897.84;5072632;28;20453;-83
2022/04/22 04:35:35;;;;;;;26.08;18.02;;;;;;;9.25;80.10;94895.19;5090141;28;20043;-83
2022/04/22 04:38:02;;;;;;;28.00;17.25;;;;;;;9.82;79.78;94985.72;5085776;28;20025;-83
2022/04/22 04:40:28;;;;;;;30.13;18.42;;;;;;;9.89;79.76;94989.66;5076733;28;20028;-83
2022/04/22 04:42:53;;;;;;;31.02;17.98;;;;;;;9.23;79.86;94884.06;5081928;28;20024;-83
2022/04/22 04:45:19;;;;;;;32.50;18.25;;;;;;;8.98;79.57;94847.16;5070508;28;20032;-83
2022/04/22 04:47:45;;;;;;;27.63;17.95;;;;;;;9.34;79.55;94898.06;5069200;28;20036;-83
2022/04/22 04:50:12;;;;;;;31.98;17.58;;;;;;;9.80;79.47;94977.25;5070815;28;20107;-83
2022/04/22 04:52:38;;;;;;;34.28;18.23;;;;;;;9.47;79.80;94947.75;5083337;28;20032;-83
2022/04/22 04:55:09;;;;;;;34.53;19.70;;;;;;;9.68;80.06;94981.03;5078667;28;20032;-83
2022/04/22 04:57:34;;;;;;;29.33;18.77;;;;;;;9.48;79.71;94933.44;5083102;28;20143;-83
2022/04/22 05:00:01;;;;;;;35.78;20.58;;;;;;;9.56;79.83;94987.69;5091077;28;20129;-83
2022/04/22 05:02:27;;;;;;;30.38;19.63;;;;;;;8.73;80.50;94826.88;5089269;28;20024;-83
2022/04/22 05:04:52;;;;;;;33.50;20.75;;;;;;;9.84;79.98;94963.19;5091564;28;20393;-83
2022/04/22 05:07:18;;;;;;;35.92;20.60;;;;;;;9.84;79.61;94952.59;5089098;28;20107;-83
2022/04/22 05:09:43;;;;;;;35.45;19.80;;;;;;;8.68;79.70;94826.91;5068392;28;20036;-83
2022/04/22 05:12:10;;;;;;;34.95;19.63;;;;;;;9.07;80.29;94834.16;5068582;28;20098;-83
2022/04/22 05:14:36;;;;;;;37.15;20.55;;;;;;;9.02;79.35;94858.75;5074406;28;20490;-83
2022/04/22 05:17:02;;;;;;;31.65;19.52;;;;;;;9.62;80.77;94907.97;5083816;28;20028;-83
2022/04/22 05:19:27;;;;;;;36.38;18.85;;;;;;;9.19;79.25;94838.06;5076470;28;20585;-83
2022/04/22 05:21:55;;;;;;;32.00;19.20;;;;;;;8.95;79.10;94784.22;5081791;28;20447;-83
2022/04/22 05:24:21;;;;;;;34.08;18.80;;;;;;;9.17;78.36;94834.09;5070653;28;20036;-83
2022/04/22 05:26:47;;;;;;;28.40;17.42;;;;;;;8.68;80.87;94784.63;5081466;28;20097;-84
2022/04/22 05:34:40;;;;;;;28.00;18.30;;;;;;;9.65;79.65;94877.50;5091329;28;20069;-84
2022/04/22 05:37:06;;;;;;;26.65;17.02;;;;;;;9.27;79.32;94818.97;5090520;28;20032;-83
2022/04/22 05:39:32;;;;;;;31.27;17.35;;;;;;;9.34;79.65;94799.34;5085687;28;20031;-83
2022/04/22 05:42:00;;;;;;;25.00;16.17;;;;;;;9.31;79.97;94753.03;5070097;28;20048;-83
2022/04/22 05:44:26;;;;;;;25.67;17.02;;;;;;;9.14;79.15;94753.44;5069416;28;20028;-83
2022/04/22 05:46:51;;;;;;;29.38;17.63;;;;;;;9.53;79.05;94774.63;5068221;28;20054;-83
2022/04/22 05:49:18;;;;;;;27.65;17.25;;;;;;;9.23;78.15;94714.72;5068597;28;20025;-83
2022/04/22 05:51:43;;;;;;;32.97;19.05;;;;;;;9.17;79.10;94701.81;5080050;28;20505;-82
2022/04/22 05:54:09;;;;;;;27.73;17.05;;;;;;;9.31;78.86;94737.16;5088676;28;20039;-83
2022/04/22 05:56:34;;;;;;;26.75;17.17;;;;;;;9.67;78.81;94745.63;5077063;28;20117;-82
2022/04/22 05:59:00;;;;;;;30.10;17.30;;;;;;;9.54;78.28;94702.03;5081949;28;20040;-82
2022/04/22 06:01:25;;;;;;;28.40;17.65;;;;;;;9.65;77.58;94706.19;5074576;28;20040;-82
2022/04/22 06:03:50;;;;;;;30.20;16.83;;;;;;;9.78;77.63;94760.34;5085558;28;20086;-82
2022/04/22 06:06:16;;;;;;;25.05;16.92;;;;;;;9.89;76.64;94758.44;5090261;28;20441;-83
2022/04/22 06:11:25;;;;;;;28.73;16.70;;;;;;;9.99;74.62;94745.84;5054245;28;20043;-83
2022/04/22 06:13:51;;;;;;;26.90;16.58;;;;;;;10.41;75.90;94792.91;5087603;28;20048;-82
2022/04/22 06:16:16;;;;;;;26.10;16.25;;;;;;;10.38;76.47;94793.47;5089777;28;20024;-83
2022/04/22 06:18:42;;;;;;;25.95;16.88;;;;;;;10.23;75.99;94761.81;5090736;28;20693;-83
2022/04/22 06:21:07;;;;;;;31.10;16.98;;;;;;;10.10;75.85;94708.66;5090746;28;20032;-83
2022/04/22 06:23:34;;;;;;;29.13;17.20;;;;;;;9.90;77.16;94713.13;5093402;28;20053;-83
2022/04/22 06:26:00;;;;;;;25.58;15.73;;;;;;;10.08;76.24;94715.03;5091907;28;20045;-83
2022/04/22 06:28:25;;;;;;;30.85;16.02;;;;;;;10.03;76.29;94735.50;5082965;28;20045;-83
2022/04/22 06:30:51;;;;;;;26.13;15.45;;;;;;;10.57;74.89;94790.88;5083560;28;20066;-83
2022/04/22 06:33:18;;;;;;;25.70;15.13;;;;;;;9.86;74.67;94677.66;5078993;28;20029;-83
2022/04/22 06:35:44;;;;;;;27.40;15.45;;;;;;;9.69;76.03;94648.94;5070050;28;20039;-83
2022/04/22 06:38:18;;;;;;;27.10;16.17;;;;;;;10.04;76.89;94707.94;5070778;28;20391;-83
2022/04/22 06:46:12;;;;;;;24.48;14.82;;;;;;;10.15;76.88;94727.94;5089399;28;20062;-83
2022/04/22 06:48:38;;;;;;;23.52;14.48;;;;;;;9.61;75.58;94625.72;5088273;28;20024;-83
2022/04/22 06:51:07;;;;;;;25.35;14.82;;;;;;;10.34;74.93;94726.19;5090031;28;20036;-83
2022/04/22 06:53:34;;;;;;;20.52;13.68;;;;;;;10.53;74.98;94757.28;5088261;28;20135;-83
2022/04/22 06:56:02;;;;;;;21.40;12.52;;;;;;;10.82;73.74;94795.13;5088472;28;20025;-84
2022/04/22 06:58:31;;;;;;;26.80;13.70;;;;;;;10.67;74.56;94745.69;5076890;28;20028;-83
2022/04/22 07:00:57;;;;;;;20.30;13.30;;;;;;;10.70;74.51;94769.00;5072778;28;20066;-83
2022/04/22 07:03:22;;;;;;;19.85;12.55;;;;;;;10.61;74.16;94735.41;5087804;28;20064;-84
2022/04/22 07:05:49;;;;;;;23.83;12.93;;;;;;;10.51;73.93;94680.66;5075610;28;20028;-83
2022/04/22 07:08:17;;;;;;;30.88;14.05;;;;;;;10.19;73.94;94644.22;5071614;28;20724;-83
2022/04/22 07:10:47;;;;;;;19.95;12.57;;;;;;;10.40;73.41;94665.94;5073105;28;20039;-83
2022/04/22 07:13:14;;;;;;;20.05;11.23;;;;;;;11.21;73.67;94771.00;5071943;28;20041;-82
2022/04/22 07:15:40;;;;;;;20.33;10.98;;;;;;;11.19;72.51;94765.97;5071512;28;20032;-83
2022/04/22 07:18:07;;;;;;;23.25;11.10;;;;;;;10.75;72.75;94670.81;5072925;28;20074;-83
2022/04/22 07:20:33;;;;;;;19.27;10.48;;;;;;;10.17;71.79;94572.16;5077784;28;20024;-83
2022/04/22 07:23:02;;;;;;;18.33;10.35;;;;;;;11.43;71.33;94768.56;5087553;28;20043;-83
2022/04/22 07:25:28;;;;;;;23.13;11.10;;;;;;;11.54;71.47;94775.28;5080128;28;20406;-82
2022/04/22 07:27:55;;;;;;;20.92;9.98;;;;;;;11.49;72.17;94748.03;5091503;28;20498;-82
2022/04/22 07:30:22;;;;;;;20.13;10.88;;;;;;;11.60;70.83;94765.34;5091756;28;20089;-83
2022/04/22 07:32:49;;;;;;;17.85;10.68;;;;;;;11.57;70.46;94726.13;5078757;28;20033;-84
2022/04/22 07:35:19;;;;;;;12.02;9.20;;;;;;;11.64;71.05;94752.31;5071298;28;20033;-83
2022/04/22 07:37:50;;;;;;;15.75;9.77;;;;;;;11.52;68.41;94724.31;5086990;28;20083;-83
2022/04/22 07:40:17;;;;;;;16.58;9.30;;;;;;;11.38;68.78;94665.06;5092436;28;20138;-83
2022/04/22 07:48:17;;;;;;;15.60;8.45;;;;;;;11.68;67.51;94685.03;5092515;28;20117;-82
2022/04/22 07:50:44;;;;;;;12.07;9.00;;;;;;;12.31;68.84;94738.41;5081048;28;20185;-84
2022/04/22 07:53:09;;;;;;;17.15;10.07;;;;;;;12.08;70.57;94702.16;5070660;28;20071;-83
2022/04/22 07:55:35;;;;;;;15.27;8.52;;;;;;;11.95;68.83;94673.69;5082261;28;20028;-82
2022/04/22 07:58:00;;;;;;;16.05;8.45;;;;;;;11.97;69.46;94692.81;5077709;28;20035;-83
2022/04/22 08:00:26;;;;;;;19.60;8.15;;;;;;;12.45;70.17;94742.94;5070718;28;20109;-83
2022/04/22 08:02:51;;;;;;;10.77;7.88;;;;;;;12.21;68.54;94687.28;5074576;28;20496;-83
2022/04/22 08:05:16;;;;;;;16.23;7.82;;;;;;;12.63;68.21;94755.38;5070056;28;20085;-83
2022/04/22 08:07:42;;;;;;;17.63;8.00;;;;;;;12.57;68.77;94760.00;5089210;28;20039;-83
2022/04/22 08:10:08;;;;;;;21.85;8.35;;;;;;;11.53;69.43;94584.38;5090297;28;20032;-83
2022/04/22 08:12:33;;;;;;;23.73;8.77;;;;;;;12.64;68.42;94736.44;5089797;28;20130;-83
2022/04/22 08:15:00;;;;;;;12.98;8.43;;;;;;;12.86;64.91;94774.88;5090140;28;20087;-83
2022/04/22 08:17:26;;;;;;;14.88;8.15;;;;;;;12.19;65.35;94698.22;5091274;28;20047;-82
2022/04/22 08:19:51;;;;;;;12.77;7.95;;;;;;;12.36;64.18;94689.66;5091814;28;20763;-83
2022/04/22 08:22:18;;;;;;;14.52;7.97;;;;;;;12.99;65.22;94764.19;5090263;28;20092;-82
2022/04/22 08:24:43;;;;;;;10.77;7.47;;;;;;;12.97;63.58;94765.59;5085699;28;20043;-83
2022/04/22 08:27:10;;;;;;;12.45;7.32;;;;;;;12.62;65.08;94679.28;5070554;28;20036;-83
2022/04/22 08:29:37;;;;;;;15.85;8.75;;;;;;;12.98;65.21;94712.03;5080148;28;20031;-83
2022/04/22 08:32:02;;;;;;;17.63;7.38;;;;;;;12.66;64.16;94667.75;5077788;28;20040;-82
2022/04/22 08:34:28;;;;;;;12.75;7.15;;;;;;;12.57;62.75;94647.50;5083157;28;20027;-83
2022/04/22 08:36:53;;;;;;;17.63;7.88;;;;;;;13.08;64.15;94722.47;5089534;28;20434;-82
2022/04/22 08:39:19;;;;;;;15.43;7.63;;;;;;;12.67;64.24;94682.63;5078095;28;20043;-82
2022/04/22 08:41:45;;;;;;;25.90;9.27;;;;;;;12.81;63.44;94672.00;5073795;28;20072;-84
2022/04/22 08:44:14;;;;;;;20.83;7.70;;;;;;;13.43;64.51;94733.44;5091570;28;20088;-82
2022/04/22 08:52:11;;;;;;;17.58;7.28;;;;;;;13.09;64.29;94638.09;5079819;28;20038;-82
2022/04/22 08:54:42;;;;;;;17.20;7.07;;;;;;;13.42;64.15;94676.75;5080455;28;20029;-82
2022/04/22 08:57:07;;;;;;;17.42;7.95;;;;;;;13.09;63.32;94608.81;5082864;28;20063;-83
2022/04/22 08:59:33;;;;;;;14.57;8.75;;;;;;;13.46;62.69;94693.69;5089299;28;20032;-82
2022/04/22 09:01:58;;;;;;;16.20;8.02;;;;;;;13.81;63.46;94705.34;5091317;28;20093;-82
2022/04/22 09:04:25;;;;;;;17.73;9.23;;;;;;;13.84;62.45;94683.41;5091426;28;20488;-82
2022/04/22 09:06:52;;;;;;;14.13;7.13;;;;;;;13.65;62.12;94610.91;5074033;28;20060;-83
2022/04/22 09:09:21;;;;;;;20.30;6.85;;;;;;;14.37;64.09;94687.91;5089207;28;20028;-83
2022/04/22 09:11:47;;;;;;;10.52;6.53;;;;;;;14.55;60.91;94686.09;5088891;28;20039;-82
2022/04/22 09:14:19;;;;;;;13.82;6.72;;;;;;;14.53;63.00;94682.97;5088073;28;20032;-83
2022/04/22 09:16:45;;;;;;;15.35;7.93;;;;;;;13.93;61.42;94581.38;5070782;28;20043;-82
2022/04/22 09:19:11;;;;;;;12.02;6.68;;;;;;;14.86;61.31;94686.81;5070255;28;20033;-82
2022/04/22 09:21:38;;;;;;;16.27;6.68;;;;;;;13.83;63.33;94529.94;5073450;28;20191;-83
2022/04/22 09:24:13;;;;;;;16.90;7.32;;;;;;;14.12;63.66;94557.91;5089779;28;20571;-83
2022/04/22 09:26:38;;;;;;;15.95;6.53;;;;;;;14.71;60.21;94639.22;5081060;28;20446;-83
2022/04/22 09:29:05;;;;;;;15.13;6.90;;;;;;;14.46;61.27;94584.69;5068751;28;20044;-83
2022/04/22 09:31:47;;;;;;;13.75;6.20;;;;;;;14.76;60.14;94616.91;5069945;28;20025;-83
2022/04/22 09:34:13;;;;;;;14.30;6.40;;;;;;;15.27;61.00;94680.22;5069011;28;20039;-83
2022/04/22 09:45:04;;;;;;;17.20;6.22;;;;;;;15.41;58.71;94686.97;5070681;28;20051;-83
2022/04/22 09:47:32;;;;;;;10.75;5.97;;;;;;;15.55;59.90;94657.47;5082455;28;20054;-83
2022/04/22 09:50:21;;;;;;;16.88;6.25;;;;;;;15.89;59.97;94672.63;5077659;28;20037;-83
2022/04/22 09:52:47;;;;;;;16.65;6.05;;;;;;;15.86;57.92;94557.53;5088101;28;20122;-82
2022/04/22 09:55:15;;;;;;;19.08;7.75;;;;;;;16.86;57.47;94644.03;5070068;28;20038;-82
2022/04/22 09:58:00;;;;;;;14.90;5.80;;;;;;;17.11;56.80;94586.03;5086308;28;20031;-82
2022/04/22 10:00:31;;;;;;;13.73;5.90;;;;;;;18.08;56.39;94656.06;5077081;28;20099;-83
2022/04/22 10:02:57;;;;;;;10.05;5.95;;;;;;;18.34;56.12;94642.34;5080182;28;20020;-83
2022/04/22 10:05:24;;;;;;;11.95;5.85;;;;;;;19.12;59.08;94636.72;5078994;28;20126;-82
2022/04/22 10:07:52;;;;;;;13.30;6.35;;;;;;;19.42;53.64;94606.81;5089093;28;20020;-83
2022/04/22 10:10:24;;;;;;;11.63;5.43;;;;;;;18.96;52.40;94552.56;5088583;28;20028;-82
2022/04/22 10:12:54;;;;;;;14.38;5.93;;;;;;;19.49;53.32;94532.53;5089900;28;20048;-83
2022/04/22 10:15:24;;;;;;;9.48;5.97;;;;;;;20.20;49.62;94563.09;5088983;28;20100;-83
2022/04/22 10:17:51;;;;;;;10.50;5.38;;;;;;;20.41;48.17;94547.47;5068762;28;20056;-82
2022/04/22 10:20:18;;;;;;;12.35;5.82;;;;;;;21.22;53.14;94596.19;5070165;28;20161;-83
2022/04/22 10:22:46;;;;;;;11.98;5.88;;;;;;;20.74;51.50;94506.63;5067526;28;20084;-82
2022/04/22 10:25:11;;;;;;;12.48;4.75;;;;;;;21.33;46.50;94554.84;5075888;28;20145;-83
2022/04/22 10:27:37;;;;;;;8.90;4.88;;;;;;;21.65;45.52;94577.03;5082906;28;20411;-83
2022/04/22 10:30:06;;;;;;;13.10;4.60;;;;;;;21.63;47.64;94570.41;5069029;28;20559;-82
2022/04/22 10:32:33;;;;;;;14.45;4.28;;;;;;;21.66;45.27;94502.25;5078981;28;20035;-83
2022/04/22 10:35:03;;;;;;;10.73;4.57;;;;;;;22.10;44.55;94556.59;5092797;28;20043;-83
2022/04/22 10:37:31;;;;;;;12.98;4.47;;;;;;;22.15;41.51;94542.78;5080311;28;20040;-83
2022/04/22 10:39:57;;;;;;;11.10;4.82;;;;;;;22.30;42.38;94566.97;5072853;28;20418;-83
2022/04/22 10:42:34;;;;;;;11.45;4.85;;;;;;;22.63;41.84;94562.84;5072048;28;20032;-82
2022/04/22 10:47:51;;;;;;;13.02;4.13;;;;;;;22.95;40.59;94558.69;5072345;28;20040;-82
2022/04/22 10:50:33;;;;;;;12.57;4.57;;;;;;;22.71;39.57;94488.81;5076602;28;20105;-82
2022/04/22 10:53:23;;;;;;;6.90;4.18;;;;;;;23.51;39.29;94538.88;5084957;28;20109;-82
2022/04/22 10:55:49;;;;;;;8.70;3.80;;;;;;;23.37;38.78;94506.22;5071750;28;20133;-82
2022/04/22 10:58:20;;;;;;;16.42;5.15;;;;;;;23.87;39.37;94556.28;5072440;28;20024;-84
2022/04/22 11:00:46;;;;;;;;;;;;;;;24.29;38.65;94565.94;5088588;28;20032;-83
2022/04/22 11:03:15;;;;;;;15.25;4.05;;;;;;;24.19;36.59;94538.34;5091361;28;20385;-82
2022/04/22 11:06:00;;;;;;;13.95;4.72;;;;;;;23.85;37.28;94494.34;5090446;28;20418;-83
2022/04/22 11:08:38;;;;;;;11.13;3.83;;;;;;;23.91;37.18;94473.13;5071493;28;20032;-83
2022/04/22 11:11:13;;;;;;;16.60;4.28;;;;;;;23.25;37.10;94457.78;5078970;28;20047;-83
2022/04/22 11:13:45;;;;;;;10.15;4.05;;;;;;;24.01;34.56;94512.28;5081606;28;20582;-83
2022/04/22 11:16:34;;;;;;;9.68;3.83;;;;;;;24.21;37.01;94497.38;5083944;28;20184;-83
2022/04/22 11:19:13;;;;;;;14.75;4.40;;;;;;;23.59;37.12;94426.81;5092297;28;20036;-83
2022/04/22 11:21:40;;;;;;;11.10;4.25;;;;;;;24.22;37.09;94469.91;5092418;28;20032;-82
2022/04/22 11:24:09;;;;;;;15.18;4.07;;;;;;;24.72;35.40;94493.84;5073967;28;20523;-83
2022/04/22 11:26:36;;;;;;;9.27;4.43;;;;;;;24.53;35.75;94427.13;5090408;28;20036;-83
2022/04/22 11:29:07;;;;;;;10.65;4.03;;;;;;;24.41;33.50;94471.56;5075308;28;20036;-82
2022/04/22 11:31:34;;;;;;;;;;;;;;;24.38;35.17;94539.31;5086437;28;20051;-82
2022/04/22 11:34:17;;;;;;;5.47;3.58;;;;;;;24.38;35.30;94521.09;5072571;28;19924;-83
2022/04/22 11:36:49;;;;;;;12.30;4.78;;;;;;;23.47;35.03;94429.78;5071159;28;20037;-82
2022/04/22 11:39:22;;;;;;;18.65;6.50;;;;;;;23.63;37.03;94503.44;5084692;28;20043;-82
2022/04/22 11:41:57;;;;;;;10.52;4.63;;;;;;;22.98;35.75;94416.53;5076777;28;20047;-81
2022/04/22 11:44:27;;;;;;;9.80;4.25;;;;;;;23.51;35.49;94449.56;5072221;28;20111;-83
2022/04/22 11:46:53;;;;;;;13.82;4.40;;;;;;;22.79;37.67;94379.66;5089598;28;20119;-82
2022/04/22 11:49:29;;;;;;;9.75;4.30;;;;;;;23.37;37.83;94452.09;5071214;28;20028;-82
2022/04/22 11:51:55;;;;;;;11.98;4.05;;;;;;;23.53;36.95;94425.63;5076597;28;20047;-81
2022/04/22 11:54:25;;;;;;;6.25;3.47;;;;;;;24.18;35.27;94474.47;5084442;28;20025;-81
2022/04/22 11:56:52;;;;;;;9.43;3.72;;;;;;;24.10;35.42;94442.31;5071736;28;20517;-82
2022/04/22 11:59:22;;;;;;;9.25;3.83;;;;;;;24.45;34.71;94466.94;5070408;28;20120;-82
2022/04/22 12:10:05;;;;;;;12.95;3.47;;;;;;;23.88;32.68;94381.03;5093654;28;20039;-82
2022/04/22 12:12:31;;;;;;;12.82;4.05;;;;;;;24.42;33.66;94461.50;5091184;28;20048;-82
2022/04/22 12:15:02;;;;;;;7.75;3.00;;;;;;;23.66;35.59;94363.84;5092077;28;20040;-82
2022/04/22 12:17:29;;;;;;;13.57;3.97;;;;;;;23.91;33.10;94367.50;5090593;28;20126;-81
2022/04/22 12:19:54;;;;;;;11.32;3.75;;;;;;;24.32;33.01;94384.44;5092019;28;20028;-82
2022/04/22 12:22:21;;;;;;;9.60;4.07;;;;;;;24.93;34.08;94429.66;5078463;28;20043;-81
2022/04/22 12:25:09;;;;;;;13.00;3.78;;;;;;;25.17;35.28;94439.03;5069927;28;20267;-82
2022/04/22 12:27:35;;;;;;;13.70;3.75;;;;;;;25.07;34.88;94415.34;5072166;28;20502;-82
2022/04/22 12:30:02;;;;;;;12.57;3.88;;;;;;;25.08;32.63;94332.03;5071192;28;20024;-83
2022/04/22 12:32:28;;;;;;;9.95;3.88;;;;;;;25.80;31.70;94421.28;5090135;28;20065;-83
2022/04/22 12:35:16;;;;;;;17.52;4.00;;;;;;;25.68;32.57;94408.88;5074932;28;20023;-83